Flight Track Log - Related Links

Times and Time Zones

All times are in EDT time to prevent confusion due to time zone crossing. See the AWE433 flight status page for this flight to view local times or setup timezone preferences in your user account.

Time Position Orientation Groundspeed Altitude Reporting Facility
EDT Latitude Longitude Course Direction KTS MPH feet Rate Location/Type
Tue 03:39:06 AM 36.0761 -115.1789 93° East 187 215 3,400  Level Los Angeles Center
Tue 03:39:48 AM 36.0769 -115.2317 271° West 215 247 4,000 885 Climbing Los Angeles Center
Tue 03:40:07 AM 36.0772 -115.2456 271° West 206 237 4,300 1,899 Climbing Los Angeles Center
Tue 03:41:00 AM 36.1833 -115.0849 90° East  Level FlightAware Approximate
Tue 03:41:07 AM 36.1303 -115.2933 324° Northwest 261 300 6,500  Level Los Angeles Center
Tue 03:42:00 AM 36.1834 -114.9341 90° East  Level FlightAware Approximate
Tue 03:42:07 AM 36.1828 -115.2275 45° Northeast 289 333 8,800  Level Los Angeles Center
Tue 03:43:00 AM 36.1974 -114.7848 80° East  Level FlightAware Approximate
Tue 03:43:07 AM 36.1981 -115.1303 79° East 290 334 11,200  Level Los Angeles Center
Tue 03:44:00 AM 36.1941 -114.6345 93° East  Level FlightAware Approximate
Tue 03:44:07 AM 36.1975 -115.0192 90° East 318 366 12,100  Level Los Angeles Center
Tue 03:45:08 AM 36.1994 -114.8942 89° East 358 412 14,000 1,736 Climbing Los Angeles Center
Tue 03:46:08 AM 36.1994 -114.7619 90° East 380 437 15,600 1,500 Climbing Los Angeles Center
Tue 03:47:08 AM 36.1972 -114.6267 91° East 391 450 17,000 1,150 Climbing Los Angeles Center
Tue 03:48:08 AM 36.1958 -114.4822 91° East 414 476 17,900 1,100 Climbing Los Angeles Center
Tue 03:49:08 AM 36.2294 -114.3289 75° East 469 540 19,200 1,300 Climbing Los Angeles Center
Tue 03:50:08 AM 36.2711 -114.1761 71° East 468 539 20,500 1,240 Climbing Los Angeles Center
Tue 03:51:09 AM 36.3144 -114.0211 71° East 473 544 21,700 1,190 Climbing Los Angeles Center
Tue 03:52:09 AM 36.3600 -113.8628 70° East 482 555 22,900 1,000 Climbing Los Angeles Center
Tue 03:53:09 AM 36.4042 -113.7006 71° East 491 565 23,700 850 Climbing Los Angeles Center
Tue 03:54:09 AM 36.4497 -113.5353 71° East 501 577 24,600 800 Climbing Los Angeles Center
Tue 03:55:09 AM 36.4950 -113.3692 71° East 506 582 25,300 650 Climbing Los Angeles Center
Tue 03:56:09 AM 36.5414 -113.2022 71° East 515 593 25,900 541 Climbing Los Angeles Center
Tue 03:57:22 AM 36.5875 -113.0289 72° East 527 606 26,500 586 Climbing Los Angeles Center
Tue 03:58:22 AM 36.6431 -112.8194 72° East 533 613 27,200 1,000 Climbing Los Angeles Center
Tue 03:59:22 AM 36.6897 -112.6469 71° East 530 610 28,500 1,082 Climbing Los Angeles Center
Tue 04:00:24 AM 36.7442 -112.4422 72° East 524 603 29,400 885 Climbing Los Angeles Center
Tue 04:01:24 AM 36.7897 -112.2683 72° East 529 609 30,300 850 Climbing Los Angeles Center
Tue 04:02:24 AM 36.8353 -112.0953 72° East 529 609 31,100 919 Climbing Los Angeles Center
Tue 04:03:15 AM 36.8711 -111.9583 72° East 528 608 32,000 1,027 Climbing Denver Center
Tue 04:04:15 AM 36.9164 -111.7878 72° East 522 601 33,000 500 Climbing Denver Center
Tue 04:05:15 AM 36.9597 -111.6192 72° East 516 594 33,000  Level Denver Center
Tue 04:06:28 AM 37.0025 -111.4506 72° East 512 589 33,000  Level Denver Center
Tue 04:07:28 AM 37.0506 -111.2483 73° East 510 587 33,000  Level Denver Center
Tue 04:08:29 AM 37.0931 -111.0772 73° East 515 593 33,000  Level Denver Center
Tue 04:09:29 AM 37.1369 -110.9078 72° East 515 593 33,000  Level Denver Center
Tue 04:10:29 AM 37.1778 -110.7372 73° East 513 590 33,000  Level Denver Center
Tue 04:11:30 AM 37.2186 -110.5692 73° East 507 583 33,000  Level Denver Center
Tue 04:12:30 AM 37.2603 -110.3997 73° East 509 586 33,000  Level Denver Center
Tue 04:13:31 AM 37.3011 -110.2317 73° East 506 582 33,000  Level Denver Center
Tue 04:14:31 AM 37.3486 -110.0347 73° East 504 580 33,000  Level Denver Center
Tue 04:15:31 AM 37.3867 -109.8725 74° East 505 581 33,000  Level Denver Center
Tue 04:16:32 AM 37.4256 -109.7089 73° East 507 583 33,000  Level Denver Center
Tue 04:17:32 AM 37.4633 -109.5464 74° East 505 581 33,000  Level Denver Center
Tue 04:18:32 AM 37.5081 -109.3575 73° East 503 579 33,000  Level Denver Center
Tue 04:19:33 AM 37.5461 -109.1950 73° East 504 580 33,000  Level Denver Center
Tue 04:20:33 AM 37.5831 -109.0314 74° East 506 582 33,000  Level Denver Center
Tue 04:21:34 AM 37.6208 -108.8689 74° East 506 582 33,000  Level Denver Center
Tue 04:22:34 AM 37.6631 -108.6778 74° East 506 582 33,000  Level Denver Center
Tue 04:23:34 AM 37.6994 -108.5131 74° East 507 583 33,000  Level Denver Center
Tue 04:24:34 AM 37.7367 -108.3506 74° East 504 580 33,000  Level Denver Center
Tue 04:25:35 AM 37.7786 -108.1594 74° East 504 580 33,000  Level Denver Center
Tue 04:26:35 AM 37.8139 -107.9981 74° East 500 575 33,000  Level Denver Center
Tue 04:27:36 AM 37.8492 -107.8364 75° East 498 573 33,000  Level Denver Center
Tue 04:28:36 AM 37.8847 -107.6731 75° East 501 577 33,000  Level Denver Center
Tue 04:29:36 AM 37.9128 -107.4822 79° East 494 568 33,000  Level Denver Center
Tue 04:30:36 AM 37.9281 -107.3178 83° East 493 567 33,000 198 Level Denver Center
Tue 04:31:37 AM 37.9428 -107.1411 84° East 494 568 33,400 496 Climbing Denver Center
Tue 04:32:37 AM 37.9583 -106.9769 83° East 493 567 34,000 650 Climbing Denver Center
Tue 04:33:37 AM 37.9922 -106.8192 75° East 486 559 34,700 496 Climbing Denver Center
Tue 04:34:38 AM 38.0306 -106.6347 75° East 485 558 35,000 149 Climbing Denver Center
Tue 04:35:38 AM 38.0653 -106.4672 75° East 479 551 35,000  Level Denver Center
Tue 04:36:38 AM 38.0925 -106.3344 75° East 480 552 35,000 -50 Level Denver Center
Tue 04:37:38 AM 38.1281 -106.1581 76° East 468 539 34,900  Descending Denver Center
Tue 04:38:39 AM 38.1594 -106.0050 75° East 467 537 35,000 50 Climbing Denver Center
Tue 04:39:39 AM 38.1789 -105.8217 82° East 469 540 35,000 50 Level Denver Center
Tue 04:40:39 AM 38.1972 -105.6642 82° East 470 541 35,100  Climbing Denver Center
Tue 04:41:40 AM 38.2158 -105.5097 81° East 463 533 35,000 -50 Descending Denver Center
Tue 04:42:40 AM 38.2331 -105.3542 82° East 464 534 35,000  Level Denver Center
Tue 04:43:40 AM 38.2525 -105.1733 82° East 462 532 35,000  Level Denver Center
Tue 04:44:41 AM 38.2692 -105.0178 82° East 462 532 35,000  Level Denver Center
Tue 04:45:41 AM 38.2869 -104.8625 82° East 463 533 35,000  Level Denver Center
Tue 04:46:41 AM 38.3058 -104.6831 82° East 459 528 35,000  Level Denver Center
Tue 04:47:41 AM 38.3322 -104.5322 77° East 454 522 35,000  Level Denver Center
Tue 04:48:42 AM 38.3633 -104.3689 76° East 455 524 35,000  Level Denver Center
Tue 04:49:42 AM 38.3936 -104.2119 76° East 454 522 35,000  Level Denver Center
Tue 04:50:42 AM 38.4225 -104.0589 76° East 448 516 35,000  Level Denver Center
Tue 04:51:43 AM 38.4511 -103.9100 76° East 449 517 35,000  Level Denver Center
Tue 04:52:43 AM 38.4778 -103.7628 77° East 447 514 35,000  Level Denver Center
Tue 04:53:43 AM 38.5047 -103.6164 77° East 442 509 35,000  Level Denver Center
Tue 04:54:43 AM 38.5358 -103.4497 77° East 444 511 35,000  Level Denver Center
Tue 04:55:44 AM 38.5625 -103.3022 77° East 446 513 35,000  Level Denver Center
Tue 04:56:44 AM 38.5897 -103.1542 77° East 447 514 35,000  Level Denver Center
Tue 04:57:44 AM 38.6172 -102.9983 77° East 446 513 35,000  Level Denver Center
Tue 04:58:45 AM 38.6450 -102.8433 77° East 443 510 35,000  Level Denver Center
Tue 04:59:45 AM 38.6739 -102.6847 77° East 449 517 35,000  Level Denver Center
Tue 05:00:45 AM 38.7042 -102.5119 77° East 449 517 35,000  Level Denver Center
Tue 05:01:45 AM 38.7294 -102.3628 78° East 449 517 35,000  Level Denver Center
Tue 05:02:46 AM 38.7544 -102.2144 78° East 446 513 35,000  Level Denver Center
Tue 05:03:46 AM 38.7797 -102.0667 78° East 443 510 35,000  Level Denver Center
Tue 05:04:46 AM 38.8089 -101.8931 78° East 445 512 35,000  Level Denver Center
Tue 05:05:46 AM 38.8342 -101.7450 78° East 445 512 35,000  Level Denver Center
Tue 05:06:47 AM 38.8586 -101.5961 78° East 445 512 35,000  Level Denver Center
Tue 05:07:47 AM 38.8825 -101.4467 78° East 444 511 35,000  Level Denver Center
Tue 05:08:47 AM 38.9114 -101.2719 78° East 448 516 35,000  Level Denver Center
Tue 05:09:47 AM 38.9358 -101.1219 78° East 448 516 35,000  Level Denver Center
Tue 05:10:48 AM 38.9594 -100.9728 78° East 446 513 35,000  Level Denver Center
Tue 05:11:48 AM 38.9875 -100.7967 78° East 448 516 35,000  Level Denver Center
Tue 05:12:48 AM 39.0114 -100.6483 78° East 444 511 35,000  Level Denver Center
Tue 05:13:48 AM 39.0344 -100.4994 79° East 445 512 35,000  Level Denver Center
Tue 05:15:00 AM 39.0572 -100.3506 79° East 444 511 35,000  Level Denver Center
Tue 05:16:01 AM 39.0878 -100.1492 79° East 449 517 35,000  Level Denver Center
Tue 05:17:01 AM 39.1117 -99.9953 79° East 448 516 35,000  Level Denver Center
Tue 05:18:01 AM 39.1342 -99.8436 79° East 449 517 35,000  Level Denver Center
Tue 05:19:01 AM 39.1603 -99.6664 79° East 451 519 35,000  Level Denver Center
Tue 05:20:02 AM 39.1831 -99.5142 79° East 451 519 35,000  Level Denver Center
Tue 05:21:02 AM 39.2050 -99.3647 79° East 456 525 35,000  Level Denver Center
Tue 05:22:02 AM 39.2308 -99.1847 79° East 459 528 35,000  Level Denver Center
Tue 05:23:02 AM 39.2528 -99.0311 80° East 457 526 35,000  Level Denver Center
Tue 05:24:02 AM 39.2722 -98.8892 80° East 458 527 35,000  Level Denver Center
Tue 05:25:03 AM 39.2997 -98.6947 80° East 460 529 35,000  Level Denver Center
Tue 05:26:03 AM 39.3219 -98.5328 80° East 459 528 35,000  Level Denver Center
Tue 05:27:03 AM 39.3447 -98.3700 80° East 462 532 35,000  Level Denver Center
Tue 05:27:40 AM 39.3586 -98.2697 80° East 462 532 35,000  Level Kansas City Center
Tue 05:28:40 AM 39.3778 -98.1281 80° East 456 525 35,000  Level Kansas City Center
Tue 05:29:41 AM 39.4028 -97.9456 80° East 460 529 35,000  Level Kansas City Center
Tue 05:30:41 AM 39.4244 -97.7792 80° East 469 540 35,000  Level Kansas City Center
Tue 05:31:42 AM 39.4450 -97.6153 81° East 463 533 35,000  Level Kansas City Center
Tue 05:32:42 AM 39.4639 -97.4717 80° East 461 531 35,000  Level Kansas City Center
Tue 05:33:43 AM 39.4886 -97.2875 80° East 464 534 35,000  Level Kansas City Center
Tue 05:34:43 AM 39.5089 -97.1286 81° East 466 536 35,000  Level Kansas City Center
Tue 05:35:44 AM 39.5267 -96.9744 81° East 464 534 35,000  Level Kansas City Center
Tue 05:36:45 AM 39.5486 -96.7858 81° East 465 535 35,000  Level Kansas City Center
Tue 05:37:45 AM 39.5678 -96.6272 81° East 464 534 35,000  Level Kansas City Center
Tue 05:38:46 AM 39.5864 -96.4681 81° East 466 536 35,000  Level Kansas City Center
Tue 05:39:46 AM 39.6086 -96.2825 81° East 465 535 35,000  Level Kansas City Center
Tue 05:40:47 AM 39.6269 -96.1233 81° East 465 535 35,000  Level Kansas City Center
Tue 05:41:47 AM 39.6453 -95.9644 81° East 466 536 35,000  Level Kansas City Center
Tue 05:42:48 AM 39.6664 -95.7794 82° East 464 534 35,000  Level Kansas City Center
Tue 05:43:48 AM 39.6844 -95.6194 82° East 464 534 35,000  Level Kansas City Center
Tue 05:44:49 AM 39.7014 -95.4617 82° East 460 529 35,000  Level Kansas City Center
Tue 05:45:49 AM 39.7186 -95.3036 82° East 459 528 35,000  Level Kansas City Center
Tue 05:46:50 AM 39.7378 -95.1189 82° East 460 529 35,000  Level Kansas City Center
Tue 05:47:50 AM 39.7556 -94.9600 82° East 456 525 35,000  Level Kansas City Center
Tue 05:48:51 AM 39.7706 -94.8047 83° East 457 526 35,000  Level Kansas City Center
Tue 05:49:51 AM 39.7875 -94.6481 82° East 456 525 35,000  Level Kansas City Center
Tue 05:50:52 AM 39.8064 -94.4661 82° East 454 522 35,000  Level Kansas City Center
Tue 05:51:52 AM 39.8211 -94.3089 83° East 457 526 35,000  Level Kansas City Center
Tue 05:52:53 AM 39.8367 -94.1525 83° East 454 522 35,000  Level Kansas City Center
Tue 05:53:53 AM 39.8525 -93.9714 83° East 461 531 35,000  Level Kansas City Center
Tue 05:54:54 AM 39.8675 -93.8103 83° East 454 522 35,000  Level Kansas City Center
Tue 05:55:54 AM 39.8842 -93.6500 82° East 454 522 35,000  Level Kansas City Center
Tue 05:56:54 AM 39.8997 -93.4889 83° East 453 521 35,000  Level Kansas City Center
Tue 05:57:55 AM 39.9139 -93.3272 83° East 453 521 35,000  Level Kansas City Center
Tue 05:58:55 AM 39.9267 -93.1653 84° East 453 521 35,000  Level Kansas City Center
Tue 05:59:56 AM 39.9444 -93.0069 82° East 451 519 35,000  Level Kansas City Center
Tue 06:00:56 AM 39.9575 -92.8447 84° East 454 522 35,000  Level Kansas City Center
Tue 06:01:56 AM 39.9706 -92.6844 84° East 453 521 35,000  Level Kansas City Center
Tue 06:02:57 AM 39.9853 -92.5236 83° East 456 525 35,000  Level Kansas City Center
Tue 06:03:57 AM 40.0022 -92.3322 83° East 453 521 35,000  Level Kansas City Center
Tue 06:04:57 AM 40.0153 -92.1722 84° East 452 520 35,000  Level Kansas City Center
Tue 06:05:58 AM 40.0275 -92.0111 84° East 452 520 35,000  Level Kansas City Center
Tue 06:06:58 AM 40.0400 -91.8497 84° East 452 520 35,000  Level Kansas City Center
Tue 06:07:58 AM 40.0519 -91.6897 84° East 451 519 35,000  Level Kansas City Center
Tue 06:08:59 AM 40.0639 -91.5292 84° East 448 516 35,000  Level Kansas City Center
Tue 06:09:59 AM 40.0747 -91.3700 85° East 447 514 35,000  Level Kansas City Center
Tue 06:10:59 AM 40.0869 -91.2111 84° East 444 511 35,000  Level Kansas City Center
Tue 06:12:00 AM 40.0989 -91.0514 84° East 446 513 35,000  Level Kansas City Center
Tue 06:13:00 AM 40.1106 -90.8789 85° East 446 513 35,000  Level Kansas City Center
Tue 06:14:00 AM 40.1219 -90.7197 85° East 444 511 35,000  Level Kansas City Center
Tue 06:15:00 AM 40.1317 -90.5597 85° East 443 510 35,000  Level Chicago Center
Tue 06:16:00 AM 40.1422 -90.4028 85° East 438 504 35,000  Level Chicago Center
Tue 06:17:01 AM 40.1522 -90.2450 85° East 436 502 35,000  Level Chicago Center
Tue 06:18:01 AM 40.1622 -90.0883 85° East 436 502 35,000  Level Chicago Center
Tue 06:19:02 AM 40.1722 -89.9314 85° East 437 503 35,000  Level Chicago Center
Tue 06:20:02 AM 40.1814 -89.7731 86° East 439 505 35,000  Level Chicago Center
Tue 06:21:03 AM 40.1908 -89.6142 85° East 443 510 35,000  Level Chicago Center
Tue 06:22:04 AM 40.1997 -89.4553 86° East 442 509 35,000  Level Chicago Center
Tue 06:23:04 AM 40.2089 -89.2981 86° East 439 505 35,000  Level Chicago Center
Tue 06:24:05 AM 40.2172 -89.1400 86° East 437 503 35,000  Level Chicago Center
Tue 06:25:05 AM 40.2258 -88.9853 86° East 431 496 35,000  Level Chicago Center
Tue 06:26:06 AM 40.2336 -88.8311 86° East 428 493 35,000  Level Chicago Center
Tue 06:27:06 AM 40.2444 -88.6444 86° East 432 497 35,000  Level Chicago Center
Tue 06:28:07 AM 40.2508 -88.5011 87° East 430 495 35,000 50 Level Chicago Center
Tue 06:29:07 AM 40.2592 -88.3433 86° East 436 502 35,100  Climbing Chicago Center
Tue 06:30:08 AM 40.2664 -88.1892 86° East 430 495 35,000 -50 Descending Chicago Center
Tue 06:31:08 AM 40.2733 -88.0364 87° East 425 489 35,000  Level Chicago Center
Tue 06:32:09 AM 40.2797 -87.8844 87° East 422 486 35,000  Level Chicago Center
Tue 06:32:44 AM 40.2833 -87.8003 87° East 422 486 35,000  Level Indianapolis Center
Tue 06:33:44 AM 40.2897 -87.6517 87° East 414 476 35,000  Level Indianapolis Center
Tue 06:34:10 AM 40.2931 -87.5850 86° East 416 479 35,000  Level Chicago Center
Tue 06:35:11 AM 40.2989 -87.4119 87° East 411 473 35,000  Level Chicago Center
Tue 06:36:11 AM 40.3047 -87.2603 87° East 415 478 35,000  Level Chicago Center
Tue 06:37:12 AM 40.3106 -87.1092 87° East 420 483 35,000  Level Chicago Center
Tue 06:38:12 AM 40.3164 -86.9564 87° East 420 483 35,000  Level Chicago Center
Tue 06:39:13 AM 40.3206 -86.8042 88° East 419 482 35,000  Level Chicago Center
Tue 06:40:14 AM 40.3264 -86.6519 87° East 418 481 35,000  Level Chicago Center
Tue 06:41:14 AM 40.3319 -86.5036 87° East 410 472 35,000  Level Chicago Center
Tue 06:42:15 AM 40.3361 -86.3542 88° East 409 471 35,000  Level Chicago Center
Tue 06:43:15 AM 40.3411 -86.2036 87° East 411 473 35,000  Level Chicago Center
Tue 06:44:16 AM 40.3447 -86.0542 88° East 411 473 35,000  Level Chicago Center
Tue 06:45:17 AM 40.3489 -85.9050 88° East 410 472 35,000  Level Chicago Center
Tue 06:46:17 AM 40.3531 -85.7536 88° East 415 478 35,000  Level Chicago Center
Tue 06:47:18 AM 40.3569 -85.6053 88° East 409 471 35,000  Level Chicago Center
Tue 06:48:19 AM 40.3597 -85.4572 89° East 407 468 35,000  Level Chicago Center
Tue 06:48:57 AM 40.3603 -85.3664 90° East 407 468 35,000  Level Indianapolis Center
Tue 06:49:57 AM 40.3642 -85.2208 88° East 402 463 35,000  Level Indianapolis Center
Tue 06:50:58 AM 40.3667 -85.0744 89° East 402 463 35,000  Level Indianapolis Center
Tue 06:51:59 AM 40.3706 -84.9036 88° East 394 453 35,000 -49 Level Indianapolis Center
Tue 06:53:00 AM 40.3725 -84.7703 89° East 400 460 34,900  Descending Indianapolis Center
Tue 06:54:01 AM 40.3744 -84.6250 89° East 395 455 35,000 49 Climbing Indianapolis Center
Tue 06:55:02 AM 40.3767 -84.4794 89° East 396 456 35,000  Level Indianapolis Center
Tue 06:56:03 AM 40.3781 -84.3342 89° East 395 455 35,000  Level Indianapolis Center
Tue 06:57:04 AM 40.3803 -84.1872 89° East 397 457 35,000  Level Indianapolis Center
Tue 06:58:05 AM 40.3817 -84.0408 89° East 398 458 35,000  Level Indianapolis Center
Tue 06:59:06 AM 40.3828 -83.8950 89° East 396 456 35,000 -49 Level Indianapolis Center
Tue 07:00:07 AM 40.3839 -83.7475 89° East 397 457 34,900  Descending Indianapolis Center
Tue 07:01:08 AM 40.3847 -83.6000 90° East 399 459 35,000 49 Climbing Indianapolis Center
Tue 07:02:09 AM 40.3856 -83.4525 90° East 399 459 35,000  Level Indianapolis Center
Tue 07:03:10 AM 40.3864 -83.3072 90° East 395 455 35,000 -49 Level Indianapolis Center
Tue 07:04:11 AM 40.3875 -83.1619 89° East 394 453 34,900 -49 Descending Indianapolis Center
Tue 07:05:12 AM 40.3881 -83.0172 90° East 392 451 34,900  Level Indianapolis Center
Tue 07:06:13 AM 40.3878 -82.8719 90° East 394 453 34,900 49 Level Indianapolis Center
Tue 07:07:15 AM 40.3881 -82.7242 90° East 394 453 35,000 49 Climbing Indianapolis Center
Tue 07:08:16 AM 40.3872 -82.5775 90° East 399 459 35,000  Level Indianapolis Center
Tue 07:09:17 AM 40.3867 -82.4303 90° East 401 461 35,000  Level Indianapolis Center
Tue 07:10:18 AM 40.3867 -82.2853 90° East 399 459 35,000  Level Indianapolis Center
Tue 07:11:19 AM 40.3856 -82.1147 90° East 398 458 35,000  Level Indianapolis Center
Tue 07:12:20 AM 40.3836 -81.9697 91° East 397 457 35,000  Level Indianapolis Center
Tue 07:13:22 AM 40.3828 -81.8239 90° East 397 457 35,000  Level Indianapolis Center
Tue 07:14:23 AM 40.3811 -81.6772 91° East 400 460 35,000 49 Level Indianapolis Center
Tue 07:15:24 AM 40.3800 -81.5289 91° East 405 466 35,100  Climbing Indianapolis Center
Tue 07:16:25 AM 40.3778 -81.3786 91° East 408 470 35,000 -47 Descending Indianapolis Center
Tue 07:17:33 AM 40.3781 -81.2044 90° East 402 463 35,000  Level Cleveland Center
Tue 07:18:33 AM 40.3767 -81.0544 91° East 402 463 35,000  Level Cleveland Center
Tue 07:19:33 AM 40.3731 -80.9075 92° East 402 463 35,000  Level Cleveland Center
Tue 07:20:33 AM 40.3692 -80.7603 92° East 402 463 35,000  Level Cleveland Center
Tue 07:21:33 AM 40.3672 -80.6131 91° East 402 463 35,000  Level Cleveland Center
Tue 07:22:33 AM 40.3653 -80.4658 91° East 402 463 35,000  Level Cleveland Center
Tue 07:23:33 AM 40.3586 -80.3353 94° East 402 463 35,000  Level Cleveland Center
Tue 07:24:33 AM 40.3542 -80.1881 92° East 402 463 35,000  Level Cleveland Center
Tue 07:25:33 AM 40.3514 -80.0408 91° East 402 463 35,000  Level Cleveland Center
Tue 07:26:33 AM 40.3506 -79.8883 90° East 407 468 35,000 -150 Level Cleveland Center
Tue 07:27:33 AM 40.3475 -79.7386 91° East 407 468 34,700 -600 Descending Cleveland Center
Tue 07:28:33 AM 40.3422 -79.5942 93° East 402 463 33,800 -950 Descending Cleveland Center
Tue 07:29:33 AM 40.3386 -79.4444 92° East 402 463 32,800 -1,000 Descending Cleveland Center
Tue 07:30:33 AM 40.3331 -79.2975 93° East 402 463 31,800 -1,050 Descending Cleveland Center
Tue 07:31:33 AM 40.3247 -79.1317 94° East 402 463 30,700 -1,050 Descending Cleveland Center
Tue 07:32:33 AM 40.3208 -78.9872 92° East 402 463 29,700 -1,000 Descending Cleveland Center
Tue 07:33:33 AM 40.3167 -78.8431 92° East 402 463 28,700 -950 Descending Cleveland Center
Tue 07:34:33 AM 40.3142 -78.6933 91° East 402 463 27,800 -950 Descending Cleveland Center
Tue 07:35:33 AM 40.3158 -78.5517 89° East 402 463 26,800 -1,000 Descending Cleveland Center
Tue 07:36:33 AM 40.3153 -78.4075 90° East 402 463 25,800 -537 Descending Cleveland Center
Tue 07:38:54 AM 40.3136 -78.0967 90° East 397 457 25,000 -239 Descending New York Center
Tue 07:39:54 AM 40.3136 -77.9578 90° East 383 441 25,000  Level New York Center
Tue 07:40:55 AM 40.3114 -77.8214 91° East 383 441 25,000 -403 Level New York Center
Tue 07:41:53 AM 40.3031 -77.6844 95° East 383 441 24,200 -915 Descending New York Center
Tue 07:42:53 AM 40.2881 -77.5467 98° East 383 441 23,200 -605 Descending New York Center
Tue 07:43:52 AM 40.2736 -77.3931 97° East 383 441 23,000 -550 Descending New York Center
Tue 07:44:53 AM 40.2542 -77.2550 100° East 383 441 22,100 -1,835 Descending New York Center
Tue 07:45:53 AM 40.2389 -77.1150 98° East 383 441 19,300 -2,529 Descending New York Center
Tue 07:46:54 AM 40.2253 -76.9778 97° East 383 441 17,000 -2,050 Descending New York Center
Tue 07:47:53 AM 40.2094 -76.8458 99° East 378 435 15,200 -2,100 Descending New York Center
Tue 07:48:54 AM 40.1950 -76.7194 98° East 368 423 12,800 -1,587 Descending New York Center
Tue 07:49:54 AM 40.1803 -76.5933 99° East 357 411 12,000 -397 Descending New York Center
Tue 07:50:55 AM 40.1678 -76.4644 97° East 350 403 12,000  Level New York Center
Tue 07:51:52 AM 40.1544 -76.3519 99° East 355 409 12,000 -154 Level New York Center
Tue 07:52:52 AM 40.1358 -76.2147 100° East 355 409 11,700 -793 Descending New York Center
Tue 07:53:53 AM 40.1242 -76.1078 98° East 343 395 10,400 -1,636 Descending New York Center
Tue 07:54:53 AM 40.1103 -75.9983 99° East 298 343 8,400 -1,180 Descending New York Center
Tue 07:55:55 AM 40.0994 -75.9106 99° East 274 315 8,000 -605 Descending New York Center
Tue 07:56:52 AM 40.0872 -75.8067 99° East 268 308 7,200 -966 Descending New York Center
Tue 07:57:53 AM 40.0783 -75.7219 98° East 263 303 6,100 -590 Descending New York Center
Tue 07:58:54 AM 40.0722 -75.6183 94° East 258 297 6,000 -49 Descending New York Center
Tue 07:59:55 AM 40.0250 -75.5986 162° South 193 222 6,000  Level New York Center
Tue 08:00:52 AM 39.9675 -75.6300 203° Southwest 176 203 6,000 -504 Level New York Center
Tue 08:01:54 AM 39.9269 -75.6514 202° Southwest 186 214 5,000 -992 Descending New York Center
Tue 08:02:53 AM 39.8781 -75.6778 203° Southwest 191 220 4,000 -500 Descending New York Center
Tue 08:03:54 AM 39.8411 -75.6617 161° South 148 170 4,000  Level New York Center
Tue 08:04:55 AM 39.8183 -75.6089 119° Southeast 139 160 4,000 -54 Level New York Center
Tue 08:05:46 AM 39.8000 -75.5500 112° Southeast 161 185 3,900 -541 Descending Philadelphia TRACON
Tue 08:06:46 AM 39.8167 -75.5000 67° East 164 189 3,000 -595 Descending Philadelphia TRACON
Tue 08:07:47 AM 39.8333 -75.4500 67° East 164 189 2,700 -600 Descending Philadelphia TRACON
Tue 08:08:46 AM 39.8333 -75.3833 90° East 158 182 1,800 -807 Descending Philadelphia TRACON
Tue 08:09:46 AM 39.8500 -75.3333 67° East 130 150 1,100 -694 Descending Philadelphia TRACON
Tue 08:10:47 AM 39.8500 -75.3000 90° East 134 154 400 -689 Descending Philadelphia TRACON
Tue 08:12:00 AM 39.8722 -75.2409 64° Northeast  Level Estimated

Login

Don't have an account? Register now (free) for customized features, flight alerts, and more!